Latest Coastal Weather Observations for Cape Jaffa

IDS60701

Issued at 3:31 pm CST Wednesday 24 May 2017 (issued every 10 minutes, with the page automatically refreshed every 10 minutes)

About coastal observations | Map of coastal stations | Coastal observations for SA | Marine services | Other Formats
Station Details ID: 026095 Name: THE LIMESTONE Lat: -36.97 Lon: 139.72 Height: 17.0 m
Data from the previous 72 hours. | See also: Recent months at Cape Jaffa
Date/Time
CST
Temp
°C
Wind Pressure Rain since
9am
mm
Weather Cloud Vis
km
Sea
Height
m
Swell
Dir  Spd
kts
Gust
kts
hPa Trend Height
m
Period
s
Dir
24/03:30pm 14.6 WNW 9 15 1019.5 - 0.0 - - - - - - -
24/03:00pm 14.9 W 10 16 1019.2 - 0.0 - - - - - - -
24/02:30pm 15.2 WSW 12 14 1019.0 - 0.0 - - - - - - -
24/02:00pm 15.1 WSW 9 13 1018.9 - 0.0 - - - - - - -
24/01:30pm 15.1 SW 9 13 1018.8 - 0.0 - - - - - - -
24/01:00pm 15.8 W 11 15 1018.6 - 0.0 - - - - - - -
24/12:30pm 15.6 WSW 10 14 1018.7 - 0.0 - - - - - - -
24/12:00pm 15.7 W 13 17 1018.9 - 0.0 - - - - - - -
24/11:30am 14.8 WSW 11 18 1019.1 - 0.0 - - - - - - -
24/11:22am 14.2 W 15 24 1019.2 - 0.0 - - - - - - -
24/11:00am 16.2 WSW 11 13 1019.1 - 0.0 - - - - - - -
24/10:30am 15.9 WSW 12 15 1018.9 - 0.0 - - - - - - -
24/10:00am 16.2 W 12 16 1018.7 - 0.0 - - - - - - -
24/09:30am 15.6 WSW 12 16 1018.4 - 0.0 - - - - - - -
24/09:00am 15.0 WSW 12 16 1018.2 - 15.2 - - - - - - -
24/08:30am 14.5 WSW 13 17 1017.9 - 15.2 - - - - - - -
24/08:00am 14.1 WSW 14 17 1017.6 - 15.2 - - - - - - -
24/07:30am 13.3 WSW 14 19 1017.2 - 15.2 - - - - - - -
24/07:00am 13.5 WSW 13 16 1016.8 - 15.2 - - - - - - -
24/06:30am 13.5 WSW 13 17 1016.3 - 15.2 - - - - - - -
24/06:00am 13.5 WSW 14 19 1016.1 - 15.2 - - - - - - -
24/05:30am 13.7 WSW 15 19 1015.8 - 15.2 - - - - - - -
24/05:00am 13.8 WSW 17 24 1015.2 - 15.2 - - - - - - -
24/04:30am 13.4 WSW 12 15 1014.9 - 15.2 - - - - - - -
24/04:00am 13.8 WSW 14 18 1014.5 - 15.2 - - - - - - -
24/03:30am 13.9 WSW 18 25 1014.2 - 15.2 - - - - - - -
24/03:00am 14.4 W 19 33 1014.2 - 15.0 - - - - - - -
24/02:30am 14.4 W 18 23 1013.7 - 15.0 - - - - - - -
24/02:00am 14.6 W 19 25 1013.4 - 15.0 - - - - - - -
24/01:30am 15.1 W 15 22 1013.4 - 15.0 - - - - - - -
24/01:00am 14.9 W 18 24 1013.3 - 15.0 - - - - - - -
24/12:30am 14.8 W 18 24 1013.4 - 15.0 - - - - - - -
24/12:00am 14.5 W 16 24 1013.4 - 15.0 Recent precip. - - - - - -
 
Date/Time
CST
Temp
°C
Wind Pressure Rain since
9am
mm
Weather Cloud Vis
km
Sea
Height
m
Swell
Dir  Spd
kts
Gust
kts
hPa Trend Height
m
Period
s
Dir
23/11:30pm 14.1 WNW 15 20 1013.3 - 15.0 - - - - - - -
23/11:00pm 14.5 WNW 11 15 1013.4 - 14.6 - - - - - - -
23/10:30pm 13.1 WNW 7 8 1013.4 - 14.6 - - - - - - -
23/10:00pm 13.2 W 12 18 1013.5 - 14.6 - - - - - - -
23/09:30pm 12.0 WNW 10 13 1013.7 - 13.8 - - - - - - -
23/09:04pm 13.5 WNW 15 26 1013.8 - 12.2 - - - - - - -
23/09:00pm 14.3 WNW 13 17 1013.5 - 12.2 - - - - - - -
23/08:30pm 14.8 WNW 11 16 1013.1 - 12.2 - - - - - - -
23/08:00pm 14.3 WNW 13 17 1013.2 - 12.2 - - - - - - -
23/07:30pm 14.3 NW 11 16 1013.1 - 12.2 - - - - - - -
23/07:00pm 13.2 W 6 8 1013.0 - 12.0 - - - - - - -
23/06:30pm 13.9 NW 10 15 1012.8 - 12.0 - - - - - - -
23/06:00pm 13.0 NNW 10 13 1012.7 - 12.0 Recent precip. - - - - - -
23/05:30pm 12.7 NW 11 15 1012.9 - 12.0 - - - - - - -
23/05:00pm 12.2 NW 12 17 1013.1 - 9.4 - - - - - - -
23/04:30pm 13.2 NNW 15 20 1013.0 - 1.6 - - - - - - -
23/04:00pm 14.6 NNW 16 20 1012.6 - 0.0 - - - - - - -
23/03:30pm 14.6 NNW 15 20 1012.8 - 0.0 - - - - - - -
23/03:00pm 14.5 NW 16 20 1012.9 - 0.0 - - - - - - -
23/02:30pm 15.8 NNW 16 21 1012.9 - 0.0 - - - - - - -
23/02:00pm 15.9 NNW 16 19 1013.1 - 0.0 - - - - - - -
23/01:30pm 16.4 NNW 17 23 1013.3 - 0.0 - - - - - - -
23/01:00pm 16.5 N 16 20 1013.5 - 0.0 - - - - - - -
23/12:30pm 16.6 N 15 20 1014.1 - 0.0 - - - - - - -
23/12:00pm 16.7 N 15 18 1014.5 - 0.0 - - - - - - -
23/11:30am 16.8 NNW 14 17 1014.8 - 0.0 - - - - - - -
23/11:00am 16.7 NNW 12 16 1015.5 - 0.0 - - - - - - -
23/10:30am 16.8 NNW 11 15 1015.6 - 0.0 - - - - - - -
23/10:00am 16.3 NNW 11 14 1015.8 - 0.0 - - - - - - -
23/09:30am 15.9 NNW 10 12 1015.9 - 0.0 - - - - - - -
23/09:00am 12.6 N 3 5 1015.8 - 1.8 - - - - - - -
23/08:30am 12.1 NNW 2 3 1015.7 - 1.8 - - - - - - -
23/08:00am 10.9 NNW 2 3 1015.6 - 1.8 - - - - - - -
23/07:30am 11.9 NNW 4 5 1015.8 - 1.8 - - - - - - -
23/07:00am 11.8 N 3 4 1015.6 - 1.8 - - - - - - -
23/06:30am 12.0 NNW 2 3 1015.4 - 1.8 - - - - - - -
23/06:00am 11.9 NNW 3 5 1015.1 - 1.8 - - - - - - -
23/05:30am 13.1 NW 5 6 1014.9 - 1.8 - - - - - - -
23/05:00am 13.5 NW 5 6 1014.8 - 1.8 - - - - - - -
23/04:30am 13.6 WNW 6 7 1014.7 - 1.8 - - - - - - -
23/04:00am 13.6 WNW 6 8 1014.8 - 1.8 - - - - - - -
23/03:30am 13.7 WNW 6 7 1014.8 - 1.8 - - - - - - -
23/03:00am 13.6 WNW 7 9 1014.8 - 1.8 - - - - - - -
23/02:30am 14.1 WNW 8 11 1014.8 - 1.8 - - - - - - -
23/02:00am 14.2 WNW 8 11 1014.7 - 1.8 - - - - - - -
23/01:30am 14.5 WNW 7 8 1014.7 - 1.8 - - - - - - -
23/01:00am 15.3 WNW 7 9 1014.5 - 1.8 - - - - - - -
23/12:30am 15.0 NW 8 10 1014.5 - 1.8 - - - - - - -
23/12:00am 15.2 WNW 8 12 1014.5 - 1.6 - - - - - - -
 
Date/Time
CST
Temp
°C
Wind Pressure Rain since
9am
mm
Weather Cloud Vis
km
Sea
Height
m
Swell
Dir  Spd
kts
Gust
kts
hPa Trend Height
m
Period
s
Dir
22/11:30pm 15.4 NW 6 9 1014.5 - 1.6 - - - - - - -
22/11:00pm 15.9 NW 9 11 1014.1 - 1.6 - - - - - - -
22/10:30pm 15.5 NNW 10 13 1014.4 - 1.6 - - - - - - -
22/10:00pm 15.8 N 12 15 1014.1 - 1.6 - - - - - - -
22/09:30pm 15.9 N 16 20 1013.8 - 1.6 - - - - - - -
22/09:00pm 15.2 N 14 18 1014.0 - 1.6 - - - - - - -
22/08:30pm 15.4 N 12 18 1013.8 - 1.6 - - - - - - -
22/08:00pm 15.4 N 13 16 1013.6 - 1.6 - - - - - - -
22/07:30pm 15.2 N 8 11 1013.9 - 1.0 - - - - - - -
22/07:00pm 15.6 N 10 12 1013.4 - 0.4 - - - - - - -
22/06:30pm 16.3 N 11 13 1013.0 - 0.0 - - - - - - -
22/06:00pm 16.7 N 12 15 1012.6 - 0.0 - - - - - - -
22/05:30pm 16.7 N 13 17 1012.6 - 0.0 - - - - - - -
22/05:00pm 16.7 N 14 18 1012.1 - 0.0 - - - - - - -
22/04:30pm 16.8 N 11 16 1011.6 - 0.0 - - - - - - -
22/04:00pm 17.2 NE 14 18 1010.5 - 0.0 - - - - - - -
22/03:30pm 17.6 NNE 19 24 1010.7 - 0.0 - - - - - - -
22/03:00pm 17.0 NNE 18 25 1011.1 - 0.0 - - - - - - -
22/02:30pm 17.1 NNE 16 23 1011.2 - 0.0 - - - - - - -
22/02:00pm 17.2 NNE 16 22 1012.2 - 0.0 - - - - - - -
22/01:30pm 17.9 NNE 18 24 1011.9 - 0.0 - - - - - - -
22/01:00pm 17.6 NNE 16 21 1012.2 - 0.0 - - - - - - -
22/12:30pm 17.2 NNE 18 25 1012.9 - 0.0 - - - - - - -
22/12:00pm 17.7 NNE 16 22 1012.9 - 0.0 - - - - - - -
22/11:30am 17.7 NNE 17 23 1013.6 - 0.0 - - - - - - -
22/11:00am 17.4 NNE 16 21 1014.1 - 0.0 - - - - - - -
22/10:30am 16.5 N 15 21 1014.8 - 0.0 - - - - - - -
22/10:00am 16.0 NNE 14 20 1015.2 - 0.0 - - - - - - -
22/09:30am 14.5 NNE 14 19 1015.0 - 0.0 - - - - - - -
22/09:00am 14.6 NNE 19 25 1014.3 - 0.0 - - - - - - -
22/08:30am 14.3 NNE 15 20 1014.8 - 0.0 - - - - - - -
22/08:00am 13.3 NNE 14 19 1014.7 - 0.0 - - - - - - -
22/07:30am 13.0 NNE 14 17 1015.0 - 0.0 - - - - - - -
22/07:00am 12.6 NE 11 15 1014.9 - 0.0 - - - - - - -
22/06:30am 12.7 NNE 10 13 1015.1 - 0.0 - - - - - - -
22/06:00am 12.7 NNE 10 13 1015.0 - 0.0 - - - - - - -
22/05:30am 10.8 NE 9 11 1015.1 - 0.0 - - - - - - -
22/05:00am 11.8 NNE 10 12 1015.0 - 0.0 - - - - - - -
22/04:30am 12.4 NNE 11 13 1015.1 - 0.0 - - - - - - -
22/04:00am 12.6 NNE 12 15 1015.3 - 0.0 - - - - - - -
22/03:30am 12.8 NNE 11 13 1015.5 - 0.0 - - - - - - -
22/03:00am 12.8 NNE 12 14 1015.6 - 0.0 - - - - - - -
22/02:30am 12.0 NE 9 13 1015.8 - 0.0 - - - - - - -
22/02:00am 10.4 NE 8 10 1016.0 - 0.0 - - - - - - -
22/01:30am 10.9 N 3 5 1016.3 - 0.0 - - - - - - -
22/01:00am 10.5 NE 8 11 1016.5 - 0.0 - - - - - - -
22/12:30am 10.6 NE 9 10 1016.6 - 0.0 - - - - - - -
22/12:00am 11.5 NE 9 10 1016.8 - 0.0 - - - - - - -
 
Date/Time
CST
Temp
°C
Wind Pressure Rain since
9am
mm
Weather Cloud Vis
km
Sea
Height
m
Swell
Dir  Spd
kts
Gust
kts
hPa Trend Height
m
Period
s
Dir
21/11:30pm 11.5 NE 9 11 1016.8 - 0.0 - - - - - - -
21/11:00pm 11.3 NE 9 10 1016.9 - 0.0 - - - - - - -
21/10:30pm 10.7 NE 9 10 1017.0 - 0.0 - - - - - - -
21/10:00pm 10.9 ENE 9 10 1017.3 - 0.0 - - - - - - -
21/09:30pm 11.8 ENE 9 10 1017.3 - 0.0 - - - - - - -
21/09:00pm 11.2 E 7 8 1017.4 - 0.0 - - - - - - -
21/08:30pm 11.3 E 7 7 1017.4 - 0.0 - - - - - - -
21/08:00pm 11.6 E 8 8 1017.4 - 0.0 - - - - - - -
21/07:30pm 12.3 E 7 7 1017.3 - 0.0 - - - - - - -
21/07:00pm 12.4 E 5 5 1017.2 - 0.0 - - - - - - -
21/06:30pm 14.0 ENE 4 4 1017.0 - 0.0 - - - - - - -
21/06:00pm 15.3 NNE 2 3 1016.8 - 0.0 - - - - - - -
21/05:30pm 15.3 NNE 3 3 1016.7 - 0.0 - - - - - - -
21/05:00pm 15.9 NNW 4 4 1016.5 - 0.0 - - - - - - -
21/04:30pm 16.8 NNW 5 7 1016.5 - 0.0 - - - - - - -
21/04:00pm 17.6 NNW 7 9 1016.5 - 0.0 - - - - - - -

Other Formats:

Comma delimited format used in spreadsheet applications
http://www.bom.gov.au/fwo/IDS60701/IDS60701.94813.axf

JavaScript Object Notation format (JSON) in row-major order
http://www.bom.gov.au/fwo/IDS60701/IDS60701.94813.json